sensor_id;sensor_type;location;lat;lon;timestamp;P1;durP1;ratioP1;P2;durP2;ratioP2
53871;SDS011;39787;53.174;5.798;2023-05-10T14:53:06;2.27;;;2.17;;
53871;SDS011;39787;53.174;5.798;2023-05-10T14:54:07;2.67;;;2.57;;
53871;SDS011;39787;53.174;5.798;2023-05-10T14:55:07;2.50;;;2.40;;
53871;SDS011;39787;53.174;5.798;2023-05-10T14:56:08;2.50;;;2.30;;
53871;SDS011;39787;53.174;5.798;2023-05-10T14:57:09;2.20;;;2.10;;
53871;SDS011;39787;53.174;5.798;2023-05-10T14:58:09;3.00;;;2.80;;
53871;SDS011;39787;53.174;5.798;2023-05-10T14:59:10;2.70;;;2.43;;
53871;SDS011;39787;53.174;5.798;2023-05-10T15:00:10;2.60;;;2.40;;
53871;SDS011;39787;53.174;5.798;2023-05-10T15:01:11;2.95;;;2.75;;
53871;SDS011;39787;53.174;5.798;2023-05-10T15:02:12;2.77;;;2.57;;
53871;SDS011;39787;53.174;5.798;2023-05-10T15:03:12;2.57;;;2.37;;
53871;SDS011;39787;53.174;5.798;2023-05-10T15:04:12;2.80;;;2.70;;
53871;SDS011;39787;53.174;5.798;2023-05-10T15:05:13;2.53;;;2.43;;
53871;SDS011;39787;53.174;5.798;2023-05-10T15:06:14;2.15;;;2.05;;
53871;SDS011;39787;53.174;5.798;2023-05-10T15:07:15;2.47;;;2.28;;
53871;SDS011;39787;53.174;5.798;2023-05-10T15:08:15;2.30;;;2.20;;
53871;SDS011;39787;53.174;5.798;2023-05-10T15:09:16;2.70;;;2.50;;
53871;SDS011;39787;53.174;5.798;2023-05-10T15:10:17;2.60;;;2.50;;
53871;SDS011;39787;53.174;5.798;2023-05-10T15:12:18;2.55;;;2.20;;
53871;SDS011;39787;53.174;5.798;2023-05-10T15:13:19;2.40;;;2.30;;
53871;SDS011;39787;53.174;5.798;2023-05-10T15:14:19;2.50;;;2.30;;
53871;SDS011;39787;53.174;5.798;2023-05-10T15:15:20;2.47;;;2.30;;
53871;SDS011;39787;53.174;5.798;2023-05-10T15:16:20;2.70;;;2.50;;
53871;SDS011;39787;53.174;5.798;2023-05-10T15:17:21;2.30;;;2.20;;
53871;SDS011;39787;53.174;5.798;2023-05-10T15:18:21;4.63;;;2.63;;
53871;SDS011;39787;53.174;5.798;2023-05-10T15:19:21;2.40;;;2.30;;
53871;SDS011;39787;53.174;5.798;2023-05-10T15:20:22;3.60;;;2.40;;
53871;SDS011;39787;53.174;5.798;2023-05-10T15:21:22;2.77;;;2.67;;
53871;SDS011;39787;53.174;5.798;2023-05-10T15:22:23;3.27;;;3.03;;
53871;SDS011;39787;53.174;5.798;2023-05-10T15:23:23;3.00;;;2.80;;
53871;SDS011;39787;53.174;5.798;2023-05-10T15:24:24;3.00;;;2.80;;
53871;SDS011;39787;53.174;5.798;2023-05-10T15:25:25;3.28;;;3.08;;
53871;SDS011;39787;53.174;5.798;2023-05-10T15:26:25;2.97;;;2.80;;
53871;SDS011;39787;53.174;5.798;2023-05-10T15:27:26;3.17;;;2.97;;
53871;SDS011;39787;53.174;5.798;2023-05-10T15:28:26;3.27;;;3.07;;
53871;SDS011;39787;53.174;5.798;2023-05-10T15:29:26;3.07;;;2.87;;
53871;SDS011;39787;53.174;5.798;2023-05-10T15:30:27;3.13;;;2.93;;
53871;SDS011;39787;53.174;5.798;2023-05-10T15:31:27;8.27;;;3.60;;
53871;SDS011;39787;53.174;5.798;2023-05-10T15:32:28;3.17;;;2.97;;
53871;SDS011;39787;53.174;5.798;2023-05-10T15:33:28;2.97;;;2.83;;
53871;SDS011;39787;53.174;5.798;2023-05-10T15:34:29;2.87;;;2.67;;
53871;SDS011;39787;53.174;5.798;2023-05-10T15:35:29;3.20;;;3.00;;
53871;SDS011;39787;53.174;5.798;2023-05-10T15:36:31;3.20;;;3.00;;
53871;SDS011;39787;53.174;5.798;2023-05-10T15:37:31;3.55;;;3.25;;
53871;SDS011;39787;53.174;5.798;2023-05-10T15:38:32;3.30;;;3.10;;
53871;SDS011;39787;53.174;5.798;2023-05-10T15:39:32;4.40;;;3.93;;
53871;SDS011;39787;53.174;5.798;2023-05-10T15:40:33;3.33;;;3.13;;
53871;SDS011;39787;53.174;5.798;2023-05-10T15:41:33;3.43;;;3.23;;
53871;SDS011;39787;53.174;5.798;2023-05-10T15:42:34;4.20;;;3.33;;
53871;SDS011;39787;53.174;5.798;2023-05-10T15:43:34;4.07;;;3.77;;
53871;SDS011;39787;53.174;5.798;2023-05-10T15:44:34;3.73;;;3.40;;
53871;SDS011;39787;53.174;5.798;2023-05-10T15:45:35;4.43;;;4.03;;
53871;SDS011;39787;53.174;5.798;2023-05-10T15:46:35;4.10;;;3.80;;
53871;SDS011;39787;53.174;5.798;2023-05-10T15:47:36;3.77;;;3.47;;
53871;SDS011;39787;53.174;5.798;2023-05-10T15:48:36;4.30;;;4.00;;
53871;SDS011;39787;53.174;5.798;2023-05-10T15:49:37;4.37;;;3.73;;
53871;SDS011;39787;53.174;5.798;2023-05-10T15:50:37;4.83;;;3.90;;
53871;SDS011;39787;53.174;5.798;2023-05-10T15:51:38;3.77;;;3.47;;
53871;SDS011;39787;53.174;5.798;2023-05-10T15:52:38;3.30;;;3.10;;
53871;SDS011;39787;53.174;5.798;2023-05-10T15:53:38;3.30;;;3.10;;
53871;SDS011;39787;53.174;5.798;2023-05-10T15:54:39;3.00;;;2.80;;
53871;SDS011;39787;53.174;5.798;2023-05-10T15:55:39;3.40;;;3.20;;
53871;SDS011;39787;53.174;5.798;2023-05-10T15:56:40;3.97;;;3.67;;
53871;SDS011;39787;53.174;5.798;2023-05-10T15:57:41;3.60;;;3.30;;
53871;SDS011;39787;53.174;5.798;2023-05-10T15:58:42;3.50;;;3.30;;
53871;SDS011;39787;53.174;5.798;2023-05-10T15:59:43;3.57;;;3.27;;
53871;SDS011;39787;53.174;5.798;2023-05-10T16:00:43;3.40;;;3.20;;
53871;SDS011;39787;53.174;5.798;2023-05-10T16:01:44;3.23;;;2.97;;
53871;SDS011;39787;53.174;5.798;2023-05-10T16:02:44;4.10;;;3.80;;
53871;SDS011;39787;53.174;5.798;2023-05-10T16:03:45;3.43;;;3.23;;
53871;SDS011;39787;53.174;5.798;2023-05-10T16:04:45;3.80;;;3.60;;
53871;SDS011;39787;53.174;5.798;2023-05-10T16:05:46;3.63;;;3.43;;
53871;SDS011;39787;53.174;5.798;2023-05-10T16:06:46;3.33;;;3.03;;
53871;SDS011;39787;53.174;5.798;2023-05-10T16:07:46;3.27;;;3.07;;
53871;SDS011;39787;53.174;5.798;2023-05-10T16:08:47;3.10;;;2.90;;
53871;SDS011;39787;53.174;5.798;2023-05-10T16:09:47;3.30;;;3.10;;
53871;SDS011;39787;53.174;5.798;2023-05-10T16:10:48;3.37;;;3.17;;
53871;SDS011;39787;53.174;5.798;2023-05-10T16:11:49;3.20;;;3.00;;
53871;SDS011;39787;53.174;5.798;2023-05-10T16:12:50;3.20;;;3.00;;
53871;SDS011;39787;53.174;5.798;2023-05-10T16:13:51;3.47;;;3.28;;
53871;SDS011;39787;53.174;5.798;2023-05-10T16:14:51;3.53;;;3.23;;
53871;SDS011;39787;53.174;5.798;2023-05-10T16:15:52;3.60;;;3.30;;
53871;SDS011;39787;53.174;5.798;2023-05-10T16:16:52;3.77;;;3.47;;
53871;SDS011;39787;53.174;5.798;2023-05-10T16:17:52;3.50;;;3.20;;
53871;SDS011;39787;53.174;5.798;2023-05-10T16:18:53;3.57;;;3.37;;
53871;SDS011;39787;53.174;5.798;2023-05-10T16:19:53;4.17;;;3.77;;
53871;SDS011;39787;53.174;5.798;2023-05-10T16:20:54;3.07;;;2.97;;
53871;SDS011;39787;53.174;5.798;2023-05-10T16:21:54;3.57;;;3.37;;
53871;SDS011;39787;53.174;5.798;2023-05-10T16:22:55;3.67;;;3.40;;
53871;SDS011;39787;53.174;5.798;2023-05-10T16:23:55;3.40;;;3.10;;
53871;SDS011;39787;53.174;5.798;2023-05-10T16:24:56;3.87;;;3.57;;
53871;SDS011;39787;53.174;5.798;2023-05-10T16:25:56;3.70;;;3.37;;
53871;SDS011;39787;53.174;5.798;2023-05-10T16:26:57;3.53;;;3.23;;
53871;SDS011;39787;53.174;5.798;2023-05-10T16:27:58;3.97;;;3.30;;
53871;SDS011;39787;53.174;5.798;2023-05-10T16:28:59;3.50;;;3.17;;
53871;SDS011;39787;53.174;5.798;2023-05-10T16:29:59;3.97;;;3.67;;
53871;SDS011;39787;53.174;5.798;2023-05-10T16:30:59;3.67;;;3.37;;
53871;SDS011;39787;53.174;5.798;2023-05-10T16:32:00;3.23;;;3.03;;
53871;SDS011;39787;53.174;5.798;2023-05-10T16:33:00;3.50;;;3.30;;
53871;SDS011;39787;53.174;5.798;2023-05-10T16:34:01;4.43;;;3.33;;
53871;SDS011;39787;53.174;5.798;2023-05-10T16:35:01;3.40;;;3.10;;
53871;SDS011;39787;53.174;5.798;2023-05-10T16:36:02;3.53;;;3.33;;
53871;SDS011;39787;53.174;5.798;2023-05-10T16:37:02;3.37;;;3.17;;
53871;SDS011;39787;53.174;5.798;2023-05-10T16:38:03;3.40;;;3.20;;
53871;SDS011;39787;53.174;5.798;2023-05-10T16:39:03;3.23;;;3.03;;
53871;SDS011;39787;53.174;5.798;2023-05-10T16:40:04;4.00;;;3.67;;
53871;SDS011;39787;53.174;5.798;2023-05-10T16:41:05;3.25;;;3.05;;
53871;SDS011;39787;53.174;5.798;2023-05-10T16:42:06;3.33;;;3.03;;
53871;SDS011;39787;53.174;5.798;2023-05-10T16:43:06;3.20;;;3.00;;
53871;SDS011;39787;53.174;5.798;2023-05-10T16:44:07;3.33;;;3.03;;
53871;SDS011;39787;53.174;5.798;2023-05-10T16:45:07;3.77;;;3.20;;
53871;SDS011;39787;53.174;5.798;2023-05-10T16:46:09;2.85;;;2.75;;
53871;SDS011;39787;53.174;5.798;2023-05-10T16:47:10;3.42;;;3.22;;
53871;SDS011;39787;53.174;5.798;2023-05-10T16:48:10;3.60;;;3.37;;
53871;SDS011;39787;53.174;5.798;2023-05-10T16:49:10;3.67;;;3.47;;
53871;SDS011;39787;53.174;5.798;2023-05-10T16:50:11;4.00;;;3.63;;
53871;SDS011;39787;53.174;5.798;2023-05-10T16:51:11;4.87;;;3.57;;
53871;SDS011;39787;53.174;5.798;2023-05-10T16:52:12;4.70;;;4.30;;
53871;SDS011;39787;53.174;5.798;2023-05-10T16:53:12;4.57;;;4.17;;
53871;SDS011;39787;53.174;5.798;2023-05-10T16:54:13;4.47;;;4.17;;
53871;SDS011;39787;53.174;5.798;2023-05-10T16:55:13;4.60;;;4.30;;
53871;SDS011;39787;53.174;5.798;2023-05-10T16:56:14;4.40;;;4.10;;
53871;SDS011;39787;53.174;5.798;2023-05-10T16:57:14;5.37;;;4.77;;
53871;SDS011;39787;53.174;5.798;2023-05-10T16:58:15;4.67;;;4.27;;
53871;SDS011;39787;53.174;5.798;2023-05-10T16:59:15;4.70;;;4.30;;
53871;SDS011;39787;53.174;5.798;2023-05-10T17:00:16;5.53;;;5.03;;
53871;SDS011;39787;53.174;5.798;2023-05-10T17:01:16;4.93;;;4.57;;
53871;SDS011;39787;53.174;5.798;2023-05-10T17:02:17;5.27;;;4.87;;
53871;SDS011;39787;53.174;5.798;2023-05-10T17:03:17;5.53;;;4.73;;
53871;SDS011;39787;53.174;5.798;2023-05-10T17:04:18;5.37;;;4.87;;
53871;SDS011;39787;53.174;5.798;2023-05-10T17:05:19;5.20;;;4.70;;
53871;SDS011;39787;53.174;5.798;2023-05-10T17:06:19;5.55;;;5.15;;
53871;SDS011;39787;53.174;5.798;2023-05-10T17:07:20;5.43;;;5.00;;
53871;SDS011;39787;53.174;5.798;2023-05-10T17:08:21;6.00;;;5.50;;
53871;SDS011;39787;53.174;5.798;2023-05-10T17:09:22;5.83;;;5.33;;
53871;SDS011;39787;53.174;5.798;2023-05-10T17:10:22;5.37;;;5.03;;
53871;SDS011;39787;53.174;5.798;2023-05-10T17:11:22;5.90;;;4.90;;
53871;SDS011;39787;53.174;5.798;2023-05-10T17:12:23;5.53;;;5.13;;
53871;SDS011;39787;53.174;5.798;2023-05-10T17:13:23;6.13;;;5.63;;
53871;SDS011;39787;53.174;5.798;2023-05-10T17:14:24;6.03;;;5.50;;
53871;SDS011;39787;53.174;5.798;2023-05-10T17:15:24;5.47;;;5.07;;
53871;SDS011;39787;53.174;5.798;2023-05-10T17:16:25;6.07;;;5.03;;
53871;SDS011;39787;53.174;5.798;2023-05-10T17:17:25;5.10;;;4.70;;
53871;SDS011;39787;53.174;5.798;2023-05-10T17:18:26;5.80;;;5.30;;
53871;SDS011;39787;53.174;5.798;2023-05-10T17:19:26;5.20;;;4.80;;
53871;SDS011;39787;53.174;5.798;2023-05-10T17:20:27;6.33;;;5.83;;
53871;SDS011;39787;53.174;5.798;2023-05-10T17:21:27;5.97;;;5.53;;
53871;SDS011;39787;53.174;5.798;2023-05-10T17:22:28;6.23;;;5.57;;
53871;SDS011;39787;53.174;5.798;2023-05-10T17:23:28;6.67;;;6.13;;
53871;SDS011;39787;53.174;5.798;2023-05-10T17:24:28;6.57;;;5.97;;
53871;SDS011;39787;53.174;5.798;2023-05-10T17:25:29;6.37;;;5.80;;
53871;SDS011;39787;53.174;5.798;2023-05-10T17:26:29;6.43;;;5.83;;
53871;SDS011;39787;53.174;5.798;2023-05-10T17:27:30;6.00;;;5.50;;
53871;SDS011;39787;53.174;5.798;2023-05-10T17:28:30;6.23;;;5.73;;
53871;SDS011;39787;53.174;5.798;2023-05-10T17:29:31;6.57;;;5.97;;
53871;SDS011;39787;53.174;5.798;2023-05-10T17:30:31;5.50;;;4.97;;
53871;SDS011;39787;53.174;5.798;2023-05-10T17:31:32;5.87;;;5.40;;
53871;SDS011;39787;53.174;5.798;2023-05-10T17:32:32;5.90;;;5.50;;
53871;SDS011;39787;53.174;5.798;2023-05-10T17:33:33;5.53;;;5.10;;
53871;SDS011;39787;53.174;5.798;2023-05-10T17:34:37;5.57;;;5.10;;
53871;SDS011;39787;53.174;5.798;2023-05-10T17:35:37;5.28;;;4.78;;
53871;SDS011;39787;53.174;5.798;2023-05-10T17:36:38;5.20;;;4.70;;
53871;SDS011;39787;53.174;5.798;2023-05-10T17:37:38;4.80;;;4.50;;
53871;SDS011;39787;53.174;5.798;2023-05-10T17:38:39;5.10;;;4.70;;
53871;SDS011;39787;53.174;5.798;2023-05-10T17:39:39;4.90;;;4.50;;
53871;SDS011;39787;53.174;5.798;2023-05-10T17:40:40;4.90;;;4.53;;
53871;SDS011;39787;53.174;5.798;2023-05-10T17:41:40;4.90;;;4.50;;
53871;SDS011;39787;53.174;5.798;2023-05-10T17:42:41;4.77;;;4.37;;
53871;SDS011;39787;53.174;5.798;2023-05-10T17:43:41;4.97;;;4.57;;
53871;SDS011;39787;53.174;5.798;2023-05-10T17:44:42;4.87;;;4.50;;
53871;SDS011;39787;53.174;5.798;2023-05-10T17:45:42;4.70;;;4.30;;
53871;SDS011;39787;53.174;5.798;2023-05-10T17:46:46;4.85;;;4.53;;
53871;SDS011;39787;53.174;5.798;2023-05-10T17:47:46;4.67;;;4.47;;
53871;SDS011;39787;53.174;5.798;2023-05-10T17:48:47;4.53;;;4.23;;
53871;SDS011;39787;53.174;5.798;2023-05-10T17:49:47;4.40;;;4.10;;
53871;SDS011;39787;53.174;5.798;2023-05-10T17:50:48;4.27;;;4.07;;
53871;SDS011;39787;53.174;5.798;2023-05-10T17:51:49;4.75;;;4.35;;
53871;SDS011;39787;53.174;5.798;2023-05-10T17:52:49;5.30;;;4.90;;
53871;SDS011;39787;53.174;5.798;2023-05-10T17:55:09;5.30;;;4.80;;
53871;SDS011;39787;53.174;5.798;2023-05-10T17:56:10;6.00;;;5.47;;
53871;SDS011;39787;53.174;5.798;2023-05-10T17:57:10;5.33;;;5.00;;
53871;SDS011;39787;53.174;5.798;2023-05-10T17:58:11;5.37;;;4.87;;
53871;SDS011;39787;53.174;5.798;2023-05-10T17:59:11;7.97;;;5.97;;
53871;SDS011;39787;53.174;5.798;2023-05-10T18:00:12;6.87;;;6.37;;
53871;SDS011;39787;53.174;5.798;2023-05-10T18:01:13;6.20;;;5.70;;
53871;SDS011;39787;53.174;5.798;2023-05-10T18:02:13;7.17;;;6.57;;
53871;SDS011;39787;53.174;5.798;2023-05-10T18:03:14;6.50;;;6.00;;
53871;SDS011;39787;53.174;5.798;2023-05-10T18:04:14;7.10;;;6.50;;
53871;SDS011;39787;53.174;5.798;2023-05-10T18:05:15;7.07;;;6.37;;
53871;SDS011;39787;53.174;5.798;2023-05-10T18:06:15;7.17;;;6.60;;
53871;SDS011;39787;53.174;5.798;2023-05-10T18:07:16;7.60;;;7.00;;
53871;SDS011;39787;53.174;5.798;2023-05-10T18:08:16;6.97;;;6.43;;
53871;SDS011;39787;53.174;5.798;2023-05-10T18:09:17;7.47;;;6.77;;
53871;SDS011;39787;53.174;5.798;2023-05-10T18:10:17;7.80;;;7.17;;
53871;SDS011;39787;53.174;5.798;2023-05-10T18:11:18;7.90;;;7.20;;
53871;SDS011;39787;53.174;5.798;2023-05-10T18:12:18;8.93;;;8.03;;
53871;SDS011;39787;53.174;5.798;2023-05-10T18:13:19;8.47;;;7.77;;
53871;SDS011;39787;53.174;5.798;2023-05-10T18:14:19;7.90;;;7.20;;
53871;SDS011;39787;53.174;5.798;2023-05-10T18:15:20;8.40;;;7.60;;
53871;SDS011;39787;53.174;5.798;2023-05-10T18:16:20;9.07;;;8.17;;
53871;SDS011;39787;53.174;5.798;2023-05-10T18:17:21;8.77;;;7.90;;
53871;SDS011;39787;53.174;5.798;2023-05-10T18:18:21;8.83;;;7.80;;
53871;SDS011;39787;53.174;5.798;2023-05-10T18:19:21;8.97;;;8.27;;
53871;SDS011;39787;53.174;5.798;2023-05-10T18:20:22;8.33;;;7.60;;
53871;SDS011;39787;53.174;5.798;2023-05-10T18:21:23;8.63;;;7.03;;
53871;SDS011;39787;53.174;5.798;2023-05-10T18:22:23;8.43;;;7.63;;
53871;SDS011;39787;53.174;5.798;2023-05-10T18:23:24;8.57;;;7.80;;
53871;SDS011;39787;53.174;5.798;2023-05-10T18:24:24;8.90;;;8.10;;
53871;SDS011;39787;53.174;5.798;2023-05-10T18:25:25;8.30;;;7.60;;
53871;SDS011;39787;53.174;5.798;2023-05-10T18:26:25;9.00;;;8.20;;
53871;SDS011;39787;53.174;5.798;2023-05-10T18:27:26;8.87;;;8.07;;
53871;SDS011;39787;53.174;5.798;2023-05-10T18:28:26;8.57;;;7.87;;
53871;SDS011;39787;53.174;5.798;2023-05-10T18:29:27;8.90;;;8.02;;
53871;SDS011;39787;53.174;5.798;2023-05-10T18:30:27;7.53;;;6.93;;
53871;SDS011;39787;53.174;5.798;2023-05-10T18:31:28;8.27;;;7.57;;
53871;SDS011;39787;53.174;5.798;2023-05-10T18:32:28;8.67;;;7.83;;
53871;SDS011;39787;53.174;5.798;2023-05-10T18:33:28;8.37;;;7.67;;
53871;SDS011;39787;53.174;5.798;2023-05-10T18:34:29;7.70;;;7.10;;
53871;SDS011;39787;53.174;5.798;2023-05-10T18:35:32;8.10;;;7.40;;
53871;SDS011;39787;53.174;5.798;2023-05-10T18:36:32;7.53;;;6.93;;
53871;SDS011;39787;53.174;5.798;2023-05-10T18:37:33;7.33;;;6.70;;
53871;SDS011;39787;53.174;5.798;2023-05-10T18:38:34;8.25;;;7.55;;
53871;SDS011;39787;53.174;5.798;2023-05-10T18:39:35;7.87;;;7.17;;
53871;SDS011;39787;53.174;5.798;2023-05-10T18:40:36;7.75;;;7.15;;
53871;SDS011;39787;53.174;5.798;2023-05-10T18:41:38;7.70;;;7.00;;
53871;SDS011;39787;53.174;5.798;2023-05-10T18:42:39;7.73;;;7.07;;
53871;SDS011;39787;53.174;5.798;2023-05-10T18:43:40;8.15;;;7.40;;
53871;SDS011;39787;53.174;5.798;2023-05-10T18:44:40;8.13;;;7.43;;
53871;SDS011;39787;53.174;5.798;2023-05-10T18:45:41;7.57;;;6.97;;
53871;SDS011;39787;53.174;5.798;2023-05-10T18:46:41;7.63;;;6.87;;
53871;SDS011;39787;53.174;5.798;2023-05-10T18:47:42;7.40;;;6.80;;
53871;SDS011;39787;53.174;5.798;2023-05-10T18:48:43;8.23;;;7.43;;
53871;SDS011;39787;53.174;5.798;2023-05-10T18:49:43;7.13;;;6.50;;
53871;SDS011;39787;53.174;5.798;2023-05-10T18:50:46;7.00;;;6.47;;
53871;SDS011;39787;53.174;5.798;2023-05-10T18:51:46;6.72;;;6.18;;
53871;SDS011;39787;53.174;5.798;2023-05-10T18:52:47;6.57;;;6.07;;
53871;SDS011;39787;53.174;5.798;2023-05-10T18:53:47;6.13;;;5.70;;
53871;SDS011;39787;53.174;5.798;2023-05-10T18:54:48;7.23;;;5.80;;
53871;SDS011;39787;53.174;5.798;2023-05-10T18:55:55;8.60;;;6.37;;
53871;SDS011;39787;53.174;5.798;2023-05-10T18:56:56;6.70;;;6.10;;
53871;SDS011;39787;53.174;5.798;2023-05-10T18:57:57;6.73;;;6.03;;
53871;SDS011;39787;53.174;5.798;2023-05-10T18:58:57;7.50;;;6.80;;
53871;SDS011;39787;53.174;5.798;2023-05-10T18:59:57;6.77;;;6.27;;
53871;SDS011;39787;53.174;5.798;2023-05-10T19:00:58;7.60;;;7.00;;
53871;SDS011;39787;53.174;5.798;2023-05-10T19:01:58;8.20;;;6.67;;
53871;SDS011;39787;53.174;5.798;2023-05-10T19:02:59;7.60;;;6.90;;
53871;SDS011;39787;53.174;5.798;2023-05-10T19:03:59;7.77;;;7.17;;
53871;SDS011;39787;53.174;5.798;2023-05-10T19:05:00;7.83;;;7.13;;
53871;SDS011;39787;53.174;5.798;2023-05-10T19:06:00;8.17;;;7.43;;
53871;SDS011;39787;53.174;5.798;2023-05-10T19:07:00;7.73;;;7.03;;
53871;SDS011;39787;53.174;5.798;2023-05-10T19:08:01;6.47;;;5.97;;
53871;SDS011;39787;53.174;5.798;2023-05-10T19:09:02;7.95;;;7.28;;
53871;SDS011;39787;53.174;5.798;2023-05-10T19:10:03;7.13;;;6.50;;
53871;SDS011;39787;53.174;5.798;2023-05-10T19:11:03;6.68;;;6.15;;
53871;SDS011;39787;53.174;5.798;2023-05-10T19:12:04;6.53;;;6.00;;
53871;SDS011;39787;53.174;5.798;2023-05-10T19:13:05;6.80;;;6.20;;
53871;SDS011;39787;53.174;5.798;2023-05-10T19:14:05;6.40;;;5.90;;
53871;SDS011;39787;53.174;5.798;2023-05-10T19:15:06;7.40;;;6.67;;
53871;SDS011;39787;53.174;5.798;2023-05-10T19:16:11;7.20;;;6.60;;
53871;SDS011;39787;53.174;5.798;2023-05-10T19:17:12;6.60;;;6.10;;
53871;SDS011;39787;53.174;5.798;2023-05-10T19:18:13;7.27;;;6.67;;
53871;SDS011;39787;53.174;5.798;2023-05-10T19:19:13;6.93;;;6.27;;
53871;SDS011;39787;53.174;5.798;2023-05-10T19:20:14;6.07;;;5.67;;
53871;SDS011;39787;53.174;5.798;2023-05-10T19:21:14;7.03;;;6.33;;
53871;SDS011;39787;53.174;5.798;2023-05-10T19:22:15;7.97;;;7.20;;
53871;SDS011;39787;53.174;5.798;2023-05-10T19:23:15;6.90;;;6.27;;
53871;SDS011;39787;53.174;5.798;2023-05-10T19:24:16;6.80;;;6.23;;
53871;SDS011;39787;53.174;5.798;2023-05-10T19:25:16;6.87;;;6.27;;
53871;SDS011;39787;53.174;5.798;2023-05-10T19:26:17;6.93;;;6.33;;
53871;SDS011;39787;53.174;5.798;2023-05-10T19:27:17;7.50;;;6.53;;
53871;SDS011;39787;53.174;5.798;2023-05-10T19:28:17;6.37;;;5.87;;
53871;SDS011;39787;53.174;5.798;2023-05-10T19:29:18;7.05;;;5.85;;
53871;SDS011;39787;53.174;5.798;2023-05-10T19:30:19;6.73;;;6.23;;
53871;SDS011;39787;53.174;5.798;2023-05-10T19:31:19;6.87;;;6.23;;
53871;SDS011;39787;53.174;5.798;2023-05-10T19:32:20;6.90;;;6.38;;
53871;SDS011;39787;53.174;5.798;2023-05-10T19:33:21;6.77;;;6.17;;
53871;SDS011;39787;53.174;5.798;2023-05-10T19:34:21;7.40;;;6.63;;
53871;SDS011;39787;53.174;5.798;2023-05-10T19:35:22;7.53;;;6.83;;
53871;SDS011;39787;53.174;5.798;2023-05-10T19:36:22;7.28;;;6.68;;
53871;SDS011;39787;53.174;5.798;2023-05-10T19:37:23;6.63;;;6.13;;
53871;SDS011;39787;53.174;5.798;2023-05-10T19:38:24;7.17;;;6.60;;
53871;SDS011;39787;53.174;5.798;2023-05-10T19:39:24;6.82;;;6.22;;
53871;SDS011;39787;53.174;5.798;2023-05-10T19:40:25;6.73;;;6.17;;
53871;SDS011;39787;53.174;5.798;2023-05-10T19:41:25;7.43;;;6.73;;
53871;SDS011;39787;53.174;5.798;2023-05-10T19:42:26;7.50;;;6.90;;
53871;SDS011;39787;53.174;5.798;2023-05-10T19:43:27;7.53;;;6.93;;
53871;SDS011;39787;53.174;5.798;2023-05-10T19:45:28;7.47;;;6.78;;
53871;SDS011;39787;53.174;5.798;2023-05-10T19:46:29;8.60;;;6.50;;
53871;SDS011;39787;53.174;5.798;2023-05-10T19:47:29;7.50;;;6.90;;
53871;SDS011;39787;53.174;5.798;2023-05-10T19:48:30;7.73;;;7.03;;
53871;SDS011;39787;53.174;5.798;2023-05-10T19:49:30;7.93;;;7.20;;
53871;SDS011;39787;53.174;5.798;2023-05-10T19:50:31;7.73;;;7.13;;
53871;SDS011;39787;53.174;5.798;2023-05-10T19:51:31;7.50;;;6.80;;
53871;SDS011;39787;53.174;5.798;2023-05-10T19:52:32;7.80;;;7.10;;
53871;SDS011;39787;53.174;5.798;2023-05-10T19:53:32;7.87;;;7.17;;
53871;SDS011;39787;53.174;5.798;2023-05-10T19:54:33;6.87;;;6.30;;
53871;SDS011;39787;53.174;5.798;2023-05-10T19:55:33;7.20;;;6.60;;
53871;SDS011;39787;53.174;5.798;2023-05-10T19:56:33;7.00;;;6.40;;
53871;SDS011;39787;53.174;5.798;2023-05-10T19:57:34;7.43;;;6.63;;
53871;SDS011;39787;53.174;5.798;2023-05-10T19:58:34;7.33;;;6.10;;
53871;SDS011;39787;53.174;5.798;2023-05-10T19:59:35;8.40;;;7.03;;
53871;SDS011;39787;53.174;5.798;2023-05-10T20:00:35;7.17;;;6.53;;
53871;SDS011;39787;53.174;5.798;2023-05-10T20:01:36;9.73;;;6.93;;
53871;SDS011;39787;53.174;5.798;2023-05-10T20:02:36;8.03;;;7.20;;
53871;SDS011;39787;53.174;5.798;2023-05-10T20:03:37;7.03;;;6.43;;
53871;SDS011;39787;53.174;5.798;2023-05-10T20:04:37;6.87;;;6.23;;
53871;SDS011;39787;53.174;5.798;2023-05-10T20:05:38;7.47;;;6.77;;
53871;SDS011;39787;53.174;5.798;2023-05-10T20:06:38;7.60;;;6.83;;
53871;SDS011;39787;53.174;5.798;2023-05-10T20:07:38;7.70;;;7.00;;
53871;SDS011;39787;53.174;5.798;2023-05-10T20:08:39;7.50;;;6.80;;
53871;SDS011;39787;53.174;5.798;2023-05-10T20:09:41;7.70;;;7.00;;
53871;SDS011;39787;53.174;5.798;2023-05-10T20:10:41;7.22;;;6.63;;
53871;SDS011;39787;53.174;5.798;2023-05-10T20:11:42;6.63;;;6.13;;
53871;SDS011;39787;53.174;5.798;2023-05-10T20:12:45;7.67;;;6.97;;
53871;SDS011;39787;53.174;5.798;2023-05-10T20:13:47;7.80;;;7.00;;
53871;SDS011;39787;53.174;5.798;2023-05-10T20:14:48;6.90;;;6.40;;
53871;SDS011;39787;53.174;5.798;2023-05-10T20:15:48;7.30;;;6.60;;
53871;SDS011;39787;53.174;5.798;2023-05-10T20:16:48;7.57;;;6.33;;
53871;SDS011;39787;53.174;5.798;2023-05-10T20:17:49;6.53;;;6.00;;
53871;SDS011;39787;53.174;5.798;2023-05-10T20:18:50;7.07;;;6.57;;
53871;SDS011;39787;53.174;5.798;2023-05-10T20:19:51;7.80;;;6.97;;
53871;SDS011;39787;53.174;5.798;2023-05-10T20:20:52;7.30;;;6.60;;
53871;SDS011;39787;53.174;5.798;2023-05-10T20:21:53;7.90;;;6.57;;
53871;SDS011;39787;53.174;5.798;2023-05-10T20:22:53;6.47;;;5.90;;
53871;SDS011;39787;53.174;5.798;2023-05-10T20:23:54;6.67;;;5.83;;
53871;SDS011;39787;53.174;5.798;2023-05-10T20:24:54;7.20;;;6.47;;
53871;SDS011;39787;53.174;5.798;2023-05-10T20:25:55;6.43;;;5.83;;
53871;SDS011;39787;53.174;5.798;2023-05-10T20:26:55;6.03;;;5.53;;
53871;SDS011;39787;53.174;5.798;2023-05-10T20:27:55;7.70;;;5.73;;
53871;SDS011;39787;53.174;5.798;2023-05-10T20:28:56;5.97;;;5.57;;
53871;SDS011;39787;53.174;5.798;2023-05-10T20:29:56;5.87;;;5.37;;
53871;SDS011;39787;53.174;5.798;2023-05-10T20:30:57;5.70;;;5.20;;
53871;SDS011;39787;53.174;5.798;2023-05-10T20:31:57;6.10;;;5.07;;
53871;SDS011;39787;53.174;5.798;2023-05-10T20:32:58;5.70;;;5.30;;
53871;SDS011;39787;53.174;5.798;2023-05-10T20:33:58;5.73;;;5.30;;
53871;SDS011;39787;53.174;5.798;2023-05-10T20:34:59;6.10;;;5.60;;
53871;SDS011;39787;53.174;5.798;2023-05-10T20:35:59;5.70;;;5.20;;
53871;SDS011;39787;53.174;5.798;2023-05-10T20:37:00;5.60;;;5.10;;
53871;SDS011;39787;53.174;5.798;2023-05-10T20:38:00;5.90;;;5.30;;
53871;SDS011;39787;53.174;5.798;2023-05-10T20:39:00;5.27;;;4.87;;
53871;SDS011;39787;53.174;5.798;2023-05-10T20:40:01;5.30;;;4.80;;
53871;SDS011;39787;53.174;5.798;2023-05-10T20:41:02;5.80;;;5.30;;
53871;SDS011;39787;53.174;5.798;2023-05-10T20:42:02;5.80;;;5.30;;
53871;SDS011;39787;53.174;5.798;2023-05-10T20:43:03;4.90;;;4.50;;
53871;SDS011;39787;53.174;5.798;2023-05-10T20:44:03;6.10;;;5.20;;
53871;SDS011;39787;53.174;5.798;2023-05-10T20:45:04;5.80;;;5.20;;
53871;SDS011;39787;53.174;5.798;2023-05-10T20:46:05;5.20;;;4.78;;
53871;SDS011;39787;53.174;5.798;2023-05-10T20:47:05;5.70;;;5.23;;
53871;SDS011;39787;53.174;5.798;2023-05-10T20:48:06;8.13;;;5.35;;
53871;SDS011;39787;53.174;5.798;2023-05-10T20:49:07;6.67;;;5.37;;
53871;SDS011;39787;53.174;5.798;2023-05-10T20:50:07;5.23;;;4.47;;
53871;SDS011;39787;53.174;5.798;2023-05-10T20:51:08;5.63;;;5.13;;
53871;SDS011;39787;53.174;5.798;2023-05-10T20:52:09;5.50;;;5.10;;
53871;SDS011;39787;53.174;5.798;2023-05-10T20:53:09;5.53;;;5.03;;
53871;SDS011;39787;53.174;5.798;2023-05-10T20:54:09;5.70;;;5.13;;
53871;SDS011;39787;53.174;5.798;2023-05-10T20:55:10;5.60;;;5.10;;
53871;SDS011;39787;53.174;5.798;2023-05-10T20:56:10;5.47;;;4.97;;
53871;SDS011;39787;53.174;5.798;2023-05-10T20:57:11;5.40;;;4.63;;
53871;SDS011;39787;53.174;5.798;2023-05-10T20:58:11;4.97;;;4.67;;
53871;SDS011;39787;53.174;5.798;2023-05-10T20:59:12;6.23;;;5.37;;
53871;SDS011;39787;53.174;5.798;2023-05-10T21:00:13;5.30;;;4.90;;
53871;SDS011;39787;53.174;5.798;2023-05-10T21:01:13;5.32;;;4.93;;